Time;durP1;ratioP1;P1;durP2;ratioP2;P2;SDS_P1;SDS_P2;PMS_P1;PMS_P2;Temp;Humidity;BMP_temperature;BMP_pressure;BME280_temperature;BME280_humidity;BME280_pressure;Samples;Min_cycle;Max_cycle;Signal;HPM_P1;HPM_P2
2023/09/12 00:01:03;;;;;;;81.00;47.20;;;;;;;;;;5070532;28;20059;-60
2023/09/12 00:03:30;;;;;;;86.82;46.85;;;;;;;;;;5071858;28;20031;-60
2023/09/12 00:05:56;;;;;;;82.17;48.87;;;;;;;;;;5070702;28;20033;-60
2023/09/12 00:08:21;;;;;;;94.15;48.45;;;;;;;;;;5071723;28;20418;-60
2023/09/12 00:10:46;;;;;;;90.63;54.38;;;;;;;;;;5070510;28;20055;-59
2023/09/12 00:13:11;;;;;;;89.83;54.27;;;;;;;;;;5072027;28;20020;-60
2023/09/12 00:15:37;;;;;;;104.82;60.13;;;;;;;;;;5070037;28;20033;-60
2023/09/12 00:18:02;;;;;;;95.07;57.87;;;;;;;;;;5071381;28;20439;-60
2023/09/12 00:20:27;;;;;;;93.15;54.55;;;;;;;;;;5070178;28;20981;-59
2023/09/12 00:22:54;;;;;;;89.10;51.87;;;;;;;;;;5071609;28;20028;-60
2023/09/12 00:25:19;;;;;;;91.18;51.60;;;;;;;;;;5070351;28;20013;-59
2023/09/12 00:27:44;;;;;;;86.67;50.70;;;;;;;;;;5071602;28;20020;-60
2023/09/12 00:30:10;;;;;;;79.70;49.60;;;;;;;;;;5070034;28;20066;-59
2023/09/12 00:32:35;;;;;;;76.97;48.65;;;;;;;;;;5071502;28;20044;-71
2023/09/12 00:35:00;;;;;;;92.65;51.65;;;;;;;;;;5071623;28;20412;-60
2023/09/12 00:37:25;;;;;;;102.32;52.75;;;;;;;;;;5068353;28;20064;-59
2023/09/12 00:39:50;;;;;;;114.57;60.47;;;;;;;;;;5071007;28;20037;-59
2023/09/12 00:42:16;;;;;;;110.53;63.78;;;;;;;;;;5069870;28;20485;-59
2023/09/12 00:44:41;;;;;;;106.23;57.07;;;;;;;;;;5071274;28;20017;-59
2023/09/12 00:47:06;;;;;;;102.57;55.97;;;;;;;;;;5069705;28;20502;-59
2023/09/12 00:49:32;;;;;;;98.80;53.63;;;;;;;;;;5071230;28;20449;-60
2023/09/12 00:51:58;;;;;;;98.60;58.78;;;;;;;;;;5069545;28;20545;-60
2023/09/12 00:54:23;;;;;;;97.45;55.35;;;;;;;;;;5071100;28;20072;-60
2023/09/12 00:56:48;;;;;;;97.10;56.10;;;;;;;;;;5069515;28;20043;-60
2023/09/12 00:59:16;;;;;;;104.30;58.50;;;;;;;;;;5070896;28;20909;-60
2023/09/12 01:01:41;;;;;;;102.32;54.90;;;;;;;;;;5069145;28;20431;-60
2023/09/12 01:04:06;;;;;;;102.23;58.37;;;;;;;;;;5071087;28;20024;-60
2023/09/12 01:06:33;;;;;;;107.80;58.28;;;;;;;;;;5068948;28;20802;-60
2023/09/12 01:08:58;;;;;;;103.10;59.08;;;;;;;;;;5070322;28;20435;-59
2023/09/12 01:11:24;;;;;;;104.20;57.72;;;;;;;;;;5069061;28;20136;-61
2023/09/12 01:13:49;;;;;;;99.30;53.10;;;;;;;;;;5071114;28;20028;-60
2023/09/12 01:16:14;;;;;;;80.35;47.65;;;;;;;;;;5068961;28;20437;-61
2023/09/12 01:18:41;;;;;;;92.95;50.97;;;;;;;;;;5070490;28;20043;-60
2023/09/12 01:21:26;;;;;;;86.55;48.53;;;;;;;;;;5069381;28;20029;-60
2023/09/12 01:24:10;;;;;;;83.80;48.35;;;;;;;;;;5070300;28;20031;-60
2023/09/12 01:26:47;;;;;;;87.55;49.80;;;;;;;;;;5069014;28;20521;-60
2023/09/12 01:29:13;;;;;;;84.77;45.70;;;;;;;;;;5070224;28;20055;-61
2023/09/12 01:31:39;;;;;;;86.20;49.33;;;;;;;;;;5068950;28;20496;-61
2023/09/12 01:34:08;;;;;;;90.55;50.58;;;;;;;;;;5070856;28;20032;-61
2023/09/12 01:36:33;;;;;;;93.40;48.50;;;;;;;;;;5068400;28;20629;-61
2023/09/12 01:38:58;;;;;;;82.07;43.95;;;;;;;;;;5070080;28;20135;-61
2023/09/12 01:41:23;;;;;;;87.67;44.97;;;;;;;;;;5069131;28;20450;-58
2023/09/12 01:43:50;;;;;;;83.33;49.00;;;;;;;;;;5070161;28;20107;-61
2023/09/12 01:46:15;;;;;;;69.70;40.80;;;;;;;;;;5068799;28;20032;-61
2023/09/12 01:48:41;;;;;;;74.63;43.20;;;;;;;;;;5070117;28;20017;-61
2023/09/12 01:51:06;;;;;;;73.10;40.13;;;;;;;;;;5069068;28;20024;-61
2023/09/12 01:53:32;;;;;;;76.82;44.92;;;;;;;;;;5069675;28;20009;-61
2023/09/12 01:55:58;;;;;;;64.93;40.35;;;;;;;;;;5069013;28;20036;-61
2023/09/12 01:58:24;;;;;;;68.68;39.70;;;;;;;;;;5070151;28;20058;-61
2023/09/12 02:00:49;;;;;;;80.85;38.90;;;;;;;;;;5068023;28;20071;-62
2023/09/12 02:03:15;;;;;;;67.45;39.22;;;;;;;;;;5070297;28;20460;-61
2023/09/12 02:05:40;;;;;;;74.20;37.42;;;;;;;;;;5068453;28;20029;-61
2023/09/12 02:08:05;;;;;;;71.63;39.47;;;;;;;;;;5069676;28;20024;-62
2023/09/12 02:10:30;;;;;;;59.50;33.90;;;;;;;;;;5068646;28;20437;-63
2023/09/12 02:12:56;;;;;;;56.90;33.70;;;;;;;;;;5070115;28;20456;-61
2023/09/12 02:15:21;;;;;;;55.85;35.03;;;;;;;;;;5068266;28;20032;-61
2023/09/12 02:17:46;;;;;;;68.40;28.83;;;;;;;;;;5069845;28;20020;-61
2023/09/12 02:20:11;;;;;;;48.63;31.80;;;;;;;;;;5070044;28;20353;-61
2023/09/12 02:22:37;;;;;;;62.40;32.13;;;;;;;;;;5067807;28;20037;-61
2023/09/12 02:25:03;;;;;;;50.03;32.13;;;;;;;;;;5070008;28;20012;-61
2023/09/12 02:27:28;;;;;;;53.45;28.85;;;;;;;;;;5068190;28;20032;-62
2023/09/12 02:29:53;;;;;;;55.17;32.08;;;;;;;;;;5069730;28;20043;-61
2023/09/12 02:32:18;;;;;;;61.17;31.67;;;;;;;;;;5068395;28;20046;-61
2023/09/12 02:34:43;;;;;;;43.25;26.95;;;;;;;;;;5070045;28;20495;-61
2023/09/12 02:37:09;;;;;;;45.70;28.33;;;;;;;;;;5068146;28;20483;-62
2023/09/12 02:39:34;;;;;;;54.33;29.47;;;;;;;;;;5070130;28;20075;-61
2023/09/12 02:41:59;;;;;;;52.47;29.33;;;;;;;;;;5072389;28;20513;-62
2023/09/12 02:44:24;;;;;;;55.58;32.53;;;;;;;;;;5073526;28;20414;-61
2023/09/12 02:46:50;;;;;;;53.08;32.38;;;;;;;;;;5072079;28;20447;-61
2023/09/12 02:49:15;;;;;;;108.95;32.95;;;;;;;;;;5073688;28;20021;-61
2023/09/12 02:51:41;;;;;;;78.57;29.88;;;;;;;;;;5071580;28;20397;-61
2023/09/12 02:54:06;;;;;;;56.00;29.13;;;;;;;;;;5073663;28;20364;-61
2023/09/12 02:56:31;;;;;;;63.45;34.42;;;;;;;;;;5071785;28;20036;-61
2023/09/12 02:58:57;;;;;;;56.65;30.80;;;;;;;;;;5072877;28;20032;-61
2023/09/12 03:01:22;;;;;;;55.50;30.45;;;;;;;;;;5071767;28;20483;-61
2023/09/12 03:03:48;;;;;;;61.65;34.97;;;;;;;;;;5073229;28;20028;-61
2023/09/12 03:06:14;;;;;;;57.28;32.17;;;;;;;;;;5071061;28;20029;-60
2023/09/12 03:08:39;;;;;;;60.92;34.20;;;;;;;;;;5073192;28;20017;-60
2023/09/12 03:11:07;;;;;;;72.88;36.75;;;;;;;;;;5071845;28;20492;-60
2023/09/12 03:13:32;;;;;;;59.28;33.85;;;;;;;;;;5072897;28;20033;-60
2023/09/12 03:15:57;;;;;;;63.80;35.83;;;;;;;;;;5071755;28;20021;-60
2023/09/12 03:18:22;;;;;;;53.15;26.80;;;;;;;;;;5073172;28;20128;-60
2023/09/12 03:20:47;;;;;;;58.67;32.17;;;;;;;;;;5070926;28;20085;-60
2023/09/12 03:23:12;;;;;;;53.85;30.92;;;;;;;;;;5072932;28;20434;-60
2023/09/12 03:25:38;;;;;;;41.58;26.13;;;;;;;;;;5071498;28;20025;-61
2023/09/12 03:28:04;;;;;;;45.83;25.83;;;;;;;;;;5072935;28;20028;-60
2023/09/12 03:30:29;;;;;;;49.28;28.33;;;;;;;;;;5071217;28;20035;-60
2023/09/12 03:32:54;;;;;;;46.53;28.30;;;;;;;;;;5072750;28;20067;-60
2023/09/12 03:35:19;;;;;;;47.83;18.60;;;;;;;;;;5071244;28;20035;-61
2023/09/12 03:37:44;;;;;;;323.48;31.33;;;;;;;;;;5072453;28;20494;-60
2023/09/12 03:40:11;;;;;;;26.73;17.13;;;;;;;;;;5070662;28;20519;-60
2023/09/12 03:42:36;;;;;;;30.40;20.80;;;;;;;;;;5072418;28;20043;-60
2023/09/12 03:45:01;;;;;;;37.35;23.45;;;;;;;;;;5072607;28;20444;-60
2023/09/12 03:47:26;;;;;;;43.73;27.13;;;;;;;;;;5071152;28;20047;-60
2023/09/12 03:49:51;;;;;;;37.25;23.77;;;;;;;;;;5072025;28;20419;-60
2023/09/12 03:52:17;;;;;;;74.90;24.33;;;;;;;;;;5069990;28;20040;-60
2023/09/12 03:54:42;;;;;;;107.32;20.83;;;;;;;;;;5072365;28;20388;-60
2023/09/12 03:57:08;;;;;;;199.30;21.83;;;;;;;;;;5070595;28;20479;-60
2023/09/12 03:59:33;;;;;;;40.88;17.15;;;;;;;;;;5072264;28;20047;-60
2023/09/12 04:01:58;;;;;;;33.55;23.25;;;;;;;;;;5070845;28;20506;-60
2023/09/12 04:04:23;;;;;;;43.07;25.77;;;;;;;;;;5072223;28;20054;-60
2023/09/12 04:06:48;;;;;;;53.22;29.08;;;;;;;;;;5070032;28;20044;-60
2023/09/12 04:09:13;;;;;;;57.08;27.83;;;;;;;;;;5071502;28;20380;-60
2023/09/12 04:11:39;;;;;;;43.63;26.52;;;;;;;;;;5056896;28;20048;-60
2023/09/12 04:14:04;;;;;;;52.83;28.00;;;;;;;;;;5051701;28;20488;-61
2023/09/12 04:16:29;;;;;;;65.65;33.47;;;;;;;;;;5050333;28;20037;-60
2023/09/12 04:18:54;;;;;;;44.97;26.42;;;;;;;;;;5051935;28;20021;-61
2023/09/12 04:21:19;;;;;;;64.10;34.00;;;;;;;;;;5049297;28;20476;-62
2023/09/12 04:23:45;;;;;;;79.13;35.55;;;;;;;;;;5051614;28;20059;-66
2023/09/12 04:26:10;;;;;;;82.47;42.72;;;;;;;;;;5057746;28;20390;-62
2023/09/12 04:28:35;;;;;;;89.20;42.05;;;;;;;;;;5071016;28;20463;-58
2023/09/12 04:31:01;;;;;;;101.18;47.30;;;;;;;;;;5069873;28;20115;-57
2023/09/12 04:33:26;;;;;;;133.85;48.63;;;;;;;;;;5066071;28;20019;-57
2023/09/12 04:35:51;;;;;;;149.70;49.65;;;;;;;;;;5069557;28;20029;-57
2023/09/12 04:38:17;;;;;;;79.90;45.45;;;;;;;;;;5070706;28;20048;-57
2023/09/12 04:40:42;;;;;;;166.32;53.53;;;;;;;;;;5068755;28;20480;-57
2023/09/12 04:43:07;;;;;;;103.45;48.47;;;;;;;;;;5070867;28;20020;-57
2023/09/12 04:45:33;;;;;;;71.68;41.92;;;;;;;;;;5069826;28;20102;-57
2023/09/12 04:47:58;;;;;;;147.75;45.83;;;;;;;;;;5071333;28;20506;-57
2023/09/12 04:50:23;;;;;;;64.30;37.77;;;;;;;;;;5069464;28;20026;-57
2023/09/12 04:52:48;;;;;;;64.80;38.05;;;;;;;;;;5071224;28;20467;-57
2023/09/12 04:55:13;;;;;;;68.68;35.58;;;;;;;;;;5069830;28;20502;-57
2023/09/12 04:57:38;;;;;;;69.90;38.22;;;;;;;;;;5070621;28;20053;-57
2023/09/12 05:00:05;;;;;;;72.10;38.53;;;;;;;;;;5070873;28;20009;-57
2023/09/12 05:02:30;;;;;;;124.97;43.50;;;;;;;;;;5056799;28;20040;-57
2023/09/12 05:04:55;;;;;;;69.28;35.60;;;;;;;;;;5049686;28;20024;-57
2023/09/12 05:07:20;;;;;;;61.90;38.30;;;;;;;;;;5058091;28;20060;-57
2023/09/12 05:09:45;;;;;;;126.47;39.33;;;;;;;;;;5057883;28;20478;-56
2023/09/12 05:12:11;;;;;;;167.13;33.23;;;;;;;;;;5056035;28;20047;-57
2023/09/12 05:14:36;;;;;;;94.80;32.97;;;;;;;;;;5058657;28;20530;-57
2023/09/12 05:17:01;;;;;;;195.48;41.58;;;;;;;;;;5055512;28;20033;-57
2023/09/12 05:19:27;;;;;;;256.48;45.65;;;;;;;;;;5056938;28;20060;-57
2023/09/12 05:21:52;;;;;;;100.50;38.17;;;;;;;;;;5058337;28;20041;-57
2023/09/12 05:24:17;;;;;;;64.20;36.67;;;;;;;;;;5056222;28;20021;-57
2023/09/12 05:26:42;;;;;;;76.32;37.00;;;;;;;;;;5055334;28;20462;-57
2023/09/12 05:29:07;;;;;;;110.15;42.40;;;;;;;;;;5057228;28;20020;-63
2023/09/12 05:31:33;;;;;;;146.77;42.58;;;;;;;;;;5055128;28;20033;-57
2023/09/12 05:33:58;;;;;;;105.55;36.28;;;;;;;;;;5057479;28;20021;-57
2023/09/12 05:36:24;;;;;;;95.28;32.10;;;;;;;;;;5057554;28;20048;-57
2023/09/12 05:38:49;;;;;;;86.03;35.05;;;;;;;;;;5069634;28;20044;-57
2023/09/12 05:41:14;;;;;;;79.90;35.13;;;;;;;;;;5067800;28;20107;-57
2023/09/12 05:43:40;;;;;;;83.03;33.17;;;;;;;;;;5068444;28;20070;-57
2023/09/12 05:46:05;;;;;;;81.95;33.60;;;;;;;;;;5066313;28;20071;-57
2023/09/12 05:48:30;;;;;;;169.20;42.60;;;;;;;;;;5066420;28;20019;-57
2023/09/12 05:50:55;;;;;;;88.88;33.67;;;;;;;;;;5066119;28;20115;-57
2023/09/12 05:53:20;;;;;;;79.78;34.75;;;;;;;;;;5068399;28;20032;-57
2023/09/12 05:55:45;;;;;;;96.70;37.53;;;;;;;;;;5066284;28;20134;-57
2023/09/12 05:58:10;;;;;;;68.20;30.90;;;;;;;;;;5068210;28;20483;-57
2023/09/12 06:00:36;;;;;;;108.25;38.28;;;;;;;;;;5067996;28;20627;-58
2023/09/12 06:03:01;;;;;;;75.10;34.80;;;;;;;;;;5068891;28;20364;-57
2023/09/12 06:05:26;;;;;;;161.20;42.53;;;;;;;;;;5064160;28;20034;-57
2023/09/12 06:07:51;;;;;;;97.25;36.65;;;;;;;;;;5049671;28;20373;-57
2023/09/12 06:10:16;;;;;;;77.87;35.13;;;;;;;;;;5057928;28;20021;-57
2023/09/12 06:12:42;;;;;;;77.03;32.00;;;;;;;;;;5069733;28;20372;-57
2023/09/12 06:15:07;;;;;;;53.47;32.53;;;;;;;;;;5069033;28;20108;-57
2023/09/12 06:17:32;;;;;;;61.60;33.40;;;;;;;;;;5068354;28;20029;-57
2023/09/12 06:19:57;;;;;;;56.95;32.15;;;;;;;;;;5069526;28;20121;-57
2023/09/12 06:22:23;;;;;;;57.10;34.20;;;;;;;;;;5067186;28;20074;-57
2023/09/12 06:24:49;;;;;;;71.20;34.47;;;;;;;;;;5070068;28;20013;-57
2023/09/12 06:27:18;;;;;;;86.90;38.45;;;;;;;;;;5067915;28;20499;-57
2023/09/12 06:29:43;;;;;;;74.13;35.95;;;;;;;;;;5069770;28;20058;-57
2023/09/12 06:32:08;;;;;;;73.47;38.77;;;;;;;;;;5068661;28;20400;-57
2023/09/12 06:34:34;;;;;;;67.15;36.03;;;;;;;;;;5069309;28;20024;-65
2023/09/12 06:36:59;;;;;;;103.23;43.20;;;;;;;;;;5068397;28;20029;-57
2023/09/12 06:39:24;;;;;;;53.90;32.47;;;;;;;;;;5069635;28;20052;-57
2023/09/12 06:41:50;;;;;;;103.03;36.37;;;;;;;;;;5067517;28;20029;-57
2023/09/12 06:44:15;;;;;;;55.03;32.10;;;;;;;;;;5068788;28;20404;-57
2023/09/12 06:46:40;;;;;;;59.33;34.53;;;;;;;;;;5066710;28;20041;-57
2023/09/12 06:49:06;;;;;;;64.30;34.33;;;;;;;;;;5068269;28;20052;-57
2023/09/12 06:51:31;;;;;;;77.30;35.13;;;;;;;;;;5067026;28;20473;-57
2023/09/12 06:53:56;;;;;;;76.13;34.22;;;;;;;;;;5068732;28;20021;-58
2023/09/12 06:56:21;;;;;;;70.63;35.00;;;;;;;;;;5067337;28;20040;-57
2023/09/12 06:58:47;;;;;;;61.78;33.53;;;;;;;;;;5069038;28;20112;-57
2023/09/12 07:01:12;;;;;;;90.32;38.42;;;;;;;;;;5067958;28;20064;-57
2023/09/12 07:03:37;;;;;;;50.13;32.40;;;;;;;;;;5069015;28;20294;-57
2023/09/12 07:06:03;;;;;;;71.78;35.03;;;;;;;;;;5068252;28;20041;-58
2023/09/12 07:08:31;;;;;;;78.15;32.72;;;;;;;;;;5069639;28;20044;-62
2023/09/12 07:10:57;;;;;;;;;;;;;;;;;;5068232;28;20033;-57
2023/09/12 07:13:22;;;;;;;48.22;30.75;;;;;;;;;;5070080;28;20275;-58
2023/09/12 07:15:47;;;;;;;51.33;32.17;;;;;;;;;;5068331;28;20429;-57
2023/09/12 07:18:14;;;;;;;70.88;35.80;;;;;;;;;;5069182;28;20024;-58
2023/09/12 07:20:40;;;;;;;82.43;36.33;;;;;;;;;;5061305;28;20037;-57
2023/09/12 07:23:05;;;;;;;76.10;36.70;;;;;;;;;;5049396;28;20161;-57
2023/09/12 07:25:30;;;;;;;58.03;35.10;;;;;;;;;;5047721;28;20500;-57
2023/09/12 07:27:55;;;;;;;108.50;42.72;;;;;;;;;;5052222;28;20476;-57
2023/09/12 07:30:20;;;;;;;60.30;36.22;;;;;;;;;;5053473;28;20021;-57
2023/09/12 07:32:45;;;;;;;65.63;39.37;;;;;;;;;;5072416;28;20389;-57
2023/09/12 07:35:11;;;;;;;53.38;35.63;;;;;;;;;;5071157;28;20430;-57
2023/09/12 07:37:36;;;;;;;65.20;36.53;;;;;;;;;;5053092;28;20071;-58
2023/09/12 07:40:02;;;;;;;56.03;36.15;;;;;;;;;;5050675;28;20037;-59
2023/09/12 07:42:29;;;;;;;59.80;38.20;;;;;;;;;;5066451;28;20031;-63
2023/09/12 07:44:54;;;;;;;53.55;35.05;;;;;;;;;;5072900;28;20514;-57
2023/09/12 07:47:19;;;;;;;56.80;35.95;;;;;;;;;;5052832;28;20057;-56
2023/09/12 07:49:44;;;;;;;52.90;34.78;;;;;;;;;;5052564;28;20028;-57
2023/09/12 07:52:09;;;;;;;55.70;36.57;;;;;;;;;;5068032;28;20502;-57
2023/09/12 07:54:36;;;;;;;61.35;35.05;;;;;;;;;;5072192;28;20024;-57
2023/09/12 07:57:01;;;;;;;58.65;35.28;;;;;;;;;;5055576;28;20117;-58
2023/09/12 07:59:27;;;;;;;74.67;41.90;;;;;;;;;;5052361;28;20068;-57
2023/09/12 08:01:52;;;;;;;56.00;36.17;;;;;;;;;;5064607;28;20033;-58
2023/09/12 08:04:17;;;;;;;53.87;33.37;;;;;;;;;;5072453;28;20430;-57
2023/09/12 08:06:42;;;;;;;49.43;34.53;;;;;;;;;;5057898;28;20455;-57
2023/09/12 08:09:08;;;;;;;60.50;36.08;;;;;;;;;;5052224;28;20500;-58
2023/09/12 08:11:33;;;;;;;63.38;39.05;;;;;;;;;;5062291;28;20040;-58
2023/09/12 08:13:58;;;;;;;66.00;37.60;;;;;;;;;;5072439;28;20024;-59
2023/09/12 08:16:23;;;;;;;58.05;37.97;;;;;;;;;;5060438;28;20407;-58
2023/09/12 08:18:48;;;;;;;55.17;37.70;;;;;;;;;;5052250;28;20021;-58
2023/09/12 08:21:13;;;;;;;64.05;38.95;;;;;;;;;;5059758;28;20055;-58
2023/09/12 08:23:39;;;;;;;57.37;38.27;;;;;;;;;;5071706;28;20040;-58
2023/09/12 08:26:04;;;;;;;55.47;38.13;;;;;;;;;;5063061;28;20090;-58
2023/09/12 08:28:29;;;;;;;55.50;38.20;;;;;;;;;;5050722;28;20439;-58
2023/09/12 08:30:54;;;;;;;53.60;38.83;;;;;;;;;;5056904;28;20036;-58
2023/09/12 08:33:19;;;;;;;55.70;37.47;;;;;;;;;;5069719;28;20453;-58
2023/09/12 08:35:45;;;;;;;51.50;36.33;;;;;;;;;;5068979;28;20032;-61
2023/09/12 08:38:10;;;;;;;48.20;34.42;;;;;;;;;;5070872;28;20025;-68
2023/09/12 08:40:35;;;;;;;43.42;34.40;;;;;;;;;;5069961;28;20033;-57
2023/09/12 08:43:00;;;;;;;46.25;34.95;;;;;;;;;;5071913;28;20423;-58
2023/09/12 08:45:26;;;;;;;44.97;33.05;;;;;;;;;;5070276;28;20025;-58
2023/09/12 08:47:55;;;;;;;47.97;32.60;;;;;;;;;;5069929;28;20024;-57
2023/09/12 08:50:20;;;;;;;46.72;31.10;;;;;;;;;;5070057;28;20525;-58
2023/09/12 08:52:46;;;;;;;35.60;29.30;;;;;;;;;;5071652;28;20108;-58
2023/09/12 08:55:12;;;;;;;32.90;27.13;;;;;;;;;;5069729;28;20096;-58
2023/09/12 08:57:38;;;;;;;36.63;28.30;;;;;;;;;;5071090;28;20403;-57
2023/09/12 09:00:08;;;;;;;35.63;30.77;;;;;;;;;;5071349;28;20025;-58
2023/09/12 09:02:34;;;;;;;36.83;28.42;;;;;;;;;;5067194;28;20119;-58
2023/09/12 09:05:01;;;;;;;33.80;28.48;;;;;;;;;;5068085;28;20104;-58
2023/09/12 09:07:27;;;;;;;32.63;26.27;;;;;;;;;;5051078;28;20055;-58
2023/09/12 09:09:53;;;;;;;28.20;25.08;;;;;;;;;;5069806;28;20020;-58
2023/09/12 09:12:18;;;;;;;32.95;25.38;;;;;;;;;;5067631;28;20122;-58
2023/09/12 09:14:44;;;;;;;31.73;27.90;;;;;;;;;;5069197;28;20642;-58
2023/09/12 09:17:11;;;;;;;26.03;23.27;;;;;;;;;;5067431;28;20454;-60
2023/09/12 09:19:43;;;;;;;28.63;25.70;;;;;;;;;;5065835;28;20024;-58
2023/09/12 09:22:08;;;;;;;30.02;23.67;;;;;;;;;;5051043;28;20037;-58
2023/09/12 09:24:33;;;;;;;30.67;25.63;;;;;;;;;;5049373;28;20389;-58
2023/09/12 09:27:00;;;;;;;27.17;24.47;;;;;;;;;;5063134;28;20439;-58
2023/09/12 09:29:25;;;;;;;28.75;24.52;;;;;;;;;;5071037;28;20039;-58
2023/09/12 09:31:51;;;;;;;30.57;26.70;;;;;;;;;;5055187;28;20395;-58
2023/09/12 09:34:17;;;;;;;30.40;26.15;;;;;;;;;;5051075;28;20064;-58
2023/09/12 09:36:43;;;;;;;34.97;30.40;;;;;;;;;;5061722;28;20067;-58
2023/09/12 09:39:08;;;;;;;26.73;23.92;;;;;;;;;;5070192;28;20059;-58
2023/09/12 09:41:33;;;;;;;28.60;25.00;;;;;;;;;;5057441;28;20403;-58
2023/09/12 09:43:59;;;;;;;28.63;25.60;;;;;;;;;;5050684;28;20017;-58
2023/09/12 09:46:24;;;;;;;35.58;26.17;;;;;;;;;;5059392;28;20032;-58
2023/09/12 09:48:50;;;;;;;26.57;23.17;;;;;;;;;;5069636;28;20024;-58
2023/09/12 09:51:15;;;;;;;30.45;25.98;;;;;;;;;;5059843;28;20454;-58
2023/09/12 09:53:40;;;;;;;25.03;22.47;;;;;;;;;;5050118;28;20013;-58
2023/09/12 09:56:10;;;;;;;23.20;20.70;;;;;;;;;;5056473;28;20024;-67
2023/09/12 09:58:35;;;;;;;24.95;21.60;;;;;;;;;;5070568;28;20028;-58
2023/09/12 10:01:01;;;;;;;28.10;21.83;;;;;;;;;;5061943;28;20037;-58
2023/09/12 10:03:28;;;;;;;31.15;21.92;;;;;;;;;;5050753;28;20422;-59
2023/09/12 10:05:54;;;;;;;24.38;21.80;;;;;;;;;;5054864;28;20028;-57
2023/09/12 10:08:20;;;;;;;24.10;21.08;;;;;;;;;;5066028;28;20024;-57
2023/09/12 10:10:47;;;;;;;25.40;22.63;;;;;;;;;;5065370;28;20036;-57
2023/09/12 10:13:13;;;;;;;23.73;20.98;;;;;;;;;;5069523;28;20452;-57
2023/09/12 10:15:39;;;;;;;24.15;21.00;;;;;;;;;;5067853;28;20052;-57
2023/09/12 10:18:07;;;;;;;22.05;19.75;;;;;;;;;;5068174;28;20063;-56
2023/09/12 10:20:35;;;;;;;24.65;21.25;;;;;;;;;;5067989;28;20040;-58
2023/09/12 10:23:08;;;;;;;21.05;18.88;;;;;;;;;;5069356;28;20016;-59
2023/09/12 10:25:35;;;;;;;21.73;19.48;;;;;;;;;;5063162;28;20029;-58
2023/09/12 10:28:00;;;;;;;24.83;21.70;;;;;;;;;;5052533;28;20028;-58
2023/09/12 10:30:26;;;;;;;21.75;19.08;;;;;;;;;;5057880;28;20593;-58
2023/09/12 10:32:52;;;;;;;21.92;18.38;;;;;;;;;;5040101;28;20065;-59
2023/09/12 10:35:17;;;;;;;25.10;19.63;;;;;;;;;;5051052;28;20506;-59
2023/09/12 10:37:44;;;;;;;28.37;20.30;;;;;;;;;;5048478;28;20025;-64
2023/09/12 10:40:10;;;;;;;23.00;19.98;;;;;;;;;;5048717;28;20525;-59
2023/09/12 10:42:36;;;;;;;24.70;19.98;;;;;;;;;;5047874;28;20392;-59
2023/09/12 10:45:03;;;;;;;24.38;21.83;;;;;;;;;;5047303;28;20097;-59
2023/09/12 10:47:29;;;;;;;24.17;21.55;;;;;;;;;;5046750;28;20504;-59
2023/09/12 10:49:54;;;;;;;21.10;18.95;;;;;;;;;;5049446;28;20032;-59
2023/09/12 10:52:26;;;;;;;18.63;16.52;;;;;;;;;;5047743;28;20038;-59
2023/09/12 10:54:51;;;;;;;16.08;13.43;;;;;;;;;;5049435;28;20124;-59
2023/09/12 10:57:16;;;;;;;17.47;14.80;;;;;;;;;;5048120;28;20136;-59
2023/09/12 11:00:00;;;;;;;17.77;15.77;;;;;;;;;;5048800;28;20481;-59
2023/09/12 11:02:30;;;;;;;20.00;16.85;;;;;;;;;;5051873;28;20445;-59
2023/09/12 11:04:55;;;;;;;19.42;16.15;;;;;;;;;;5056862;28;20015;-59
2023/09/12 11:07:36;;;;;;;17.85;15.88;;;;;;;;;;5070806;28;20036;-59
2023/09/12 11:10:18;;;;;;;18.50;16.08;;;;;;;;;;5071812;28;20029;-60
2023/09/12 11:12:43;;;;;;;16.67;14.93;;;;;;;;;;5051435;28;20315;-60
2023/09/12 11:15:10;;;;;;;14.48;11.90;;;;;;;;;;5051554;28;20052;-60
2023/09/12 11:17:42;;;;;;;18.60;15.73;;;;;;;;;;5051106;28;20039;-60
2023/09/12 11:20:11;;;;;;;16.63;13.65;;;;;;;;;;5052856;28;20021;-60
2023/09/12 11:22:39;;;;;;;20.27;14.43;;;;;;;;;;5071058;28;20089;-60
2023/09/12 11:25:05;;;;;;;;;;;;;;;;;;5073613;28;20021;-60
2023/09/12 11:27:31;;;;;;;15.48;12.85;;;;;;;;;;5071158;28;20047;-60
2023/09/12 11:30:02;;;;;;;17.75;13.27;;;;;;;;;;5072764;28;20040;-61
2023/09/12 11:32:31;;;;;;;14.93;12.25;;;;;;;;;;5070777;28;20516;-60
2023/09/12 11:34:56;;;;;;;13.68;12.15;;;;;;;;;;5072920;28;20025;-60
2023/09/12 11:37:22;;;;;;;14.67;13.27;;;;;;;;;;5069503;28;20036;-63
2023/09/12 11:39:50;;;;;;;16.15;13.45;;;;;;;;;;5068974;28;20477;-60
2023/09/12 11:42:15;;;;;;;16.83;13.52;;;;;;;;;;5069893;28;20035;-60
2023/09/12 11:44:41;;;;;;;14.05;12.45;;;;;;;;;;5071873;28;20013;-60
2023/09/12 11:47:09;;;;;;;15.50;13.40;;;;;;;;;;5052198;28;20128;-60
2023/09/12 11:49:38;;;;;;;16.05;14.18;;;;;;;;;;5052498;28;20021;-60
2023/09/12 11:52:04;;;;;;;16.00;13.75;;;;;;;;;;5050748;28;20110;-60
2023/09/12 11:54:29;;;;;;;15.85;12.52;;;;;;;;;;5052276;28;20056;-60
2023/09/12 11:56:56;;;;;;;22.27;14.25;;;;;;;;;;5050701;28;20376;-60
2023/09/12 11:59:25;;;;;;;16.03;14.27;;;;;;;;;;5052143;28;20079;-60
2023/09/12 12:01:50;;;;;;;17.15;15.35;;;;;;;;;;5050536;28;20033;-60
2023/09/12 12:04:16;;;;;;;18.37;14.90;;;;;;;;;;5052173;28;20071;-60
2023/09/12 12:06:43;;;;;;;14.02;12.30;;;;;;;;;;5048819;28;20993;-60
2023/09/12 12:09:09;;;;;;;17.17;15.40;;;;;;;;;;5052220;28;20017;-62
2023/09/12 12:11:34;;;;;;;18.80;14.50;;;;;;;;;;5050117;28;20036;-60
2023/09/12 12:14:08;;;;;;;19.50;13.65;;;;;;;;;;5051109;28;20073;-60
2023/09/12 12:16:34;;;;;;;18.75;12.75;;;;;;;;;;5050154;28;20041;-60
2023/09/12 12:18:59;;;;;;;17.67;13.68;;;;;;;;;;5052172;28;20552;-61
2023/09/12 12:21:25;;;;;;;17.60;13.88;;;;;;;;;;5049813;28;20036;-60
2023/09/12 12:24:00;;;;;;;16.27;13.43;;;;;;;;;;5051413;28;20127;-60
2023/09/12 12:26:26;;;;;;;16.80;13.02;;;;;;;;;;5050187;28;20033;-60
2023/09/12 12:28:51;;;;;;;22.77;14.05;;;;;;;;;;5049873;28;20017;-60
2023/09/12 12:31:17;;;;;;;23.08;12.80;;;;;;;;;;5048787;28;20025;-60
2023/09/12 12:33:47;;;;;;;23.10;12.43;;;;;;;;;;5051384;28;20021;-60
2023/09/12 12:36:12;;;;;;;16.42;12.07;;;;;;;;;;5049944;28;20029;-59
2023/09/12 12:38:38;;;;;;;12.13;10.93;;;;;;;;;;5051113;28;20045;-60
2023/09/12 12:41:03;;;;;;;17.40;11.60;;;;;;;;;;5049711;28;20452;-60
2023/09/12 12:43:29;;;;;;;14.05;12.50;;;;;;;;;;5051026;28;20380;-60
2023/09/12 12:45:55;;;;;;;13.88;11.27;;;;;;;;;;5049670;28;20033;-63
2023/09/12 12:48:33;;;;;;;17.38;11.63;;;;;;;;;;5051285;28;20020;-60
2023/09/12 12:50:59;;;;;;;13.40;12.00;;;;;;;;;;5048173;28;20388;-61
2023/09/12 12:53:37;;;;;;;16.05;12.57;;;;;;;;;;5051144;28;20104;-60
2023/09/12 12:56:02;;;;;;;16.70;11.15;;;;;;;;;;5049464;28;20029;-60
2023/09/12 12:58:28;;;;;;;13.87;11.87;;;;;;;;;;5050197;28;20346;-60
2023/09/12 13:00:53;;;;;;;12.25;10.23;;;;;;;;;;5049302;28;20826;-60
2023/09/12 13:03:18;;;;;;;12.10;9.60;;;;;;;;;;5051079;28;20019;-60
2023/09/12 13:05:43;;;;;;;14.43;8.60;;;;;;;;;;5048736;28;20591;-60
2023/09/12 13:08:08;;;;;;;13.05;9.20;;;;;;;;;;5050875;28;20138;-60
2023/09/12 13:10:33;;;;;;;16.77;10.02;;;;;;;;;;5049172;28;20082;-60
2023/09/12 13:12:59;;;;;;;13.33;10.53;;;;;;;;;;5050602;28;20048;-60
2023/09/12 13:15:24;;;;;;;13.45;10.18;;;;;;;;;;5049330;28;20427;-59
2023/09/12 13:17:49;;;;;;;12.93;9.63;;;;;;;;;;5050616;28;20025;-60
2023/09/12 13:20:14;;;;;;;14.07;9.10;;;;;;;;;;5048696;28;20017;-60
2023/09/12 13:22:40;;;;;;;10.40;8.37;;;;;;;;;;5050733;28;20016;-60
2023/09/12 13:25:05;;;;;;;11.80;10.25;;;;;;;;;;5050655;28;20029;-64
2023/09/12 13:27:30;;;;;;;12.63;8.88;;;;;;;;;;5048350;28;20041;-60
2023/09/12 13:29:55;;;;;;;13.15;10.13;;;;;;;;;;5050494;28;20108;-60
2023/09/12 13:32:21;;;;;;;12.07;10.88;;;;;;;;;;5068661;28;20483;-60
2023/09/12 13:34:46;;;;;;;10.10;8.17;;;;;;;;;;5069803;28;20029;-60
2023/09/12 13:37:11;;;;;;;11.25;8.23;;;;;;;;;;5068651;28;20048;-59
2023/09/12 13:39:36;;;;;;;8.15;7.28;;;;;;;;;;5069879;28;20109;-60
2023/09/12 13:42:03;;;;;;;8.50;7.57;;;;;;;;;;5065531;28;20033;-60
2023/09/12 13:44:28;;;;;;;9.95;7.00;;;;;;;;;;5050128;28;20028;-60
2023/09/12 13:46:53;;;;;;;11.68;8.75;;;;;;;;;;5048915;28;20377;-60
2023/09/12 13:49:18;;;;;;;19.70;9.30;;;;;;;;;;5049955;28;20029;-60
2023/09/12 13:51:43;;;;;;;12.38;8.88;;;;;;;;;;5047618;28;20123;-60
2023/09/12 13:54:14;;;;;;;10.93;7.93;;;;;;;;;;5050204;28;20376;-59
2023/09/12 13:56:39;;;;;;;11.43;9.15;;;;;;;;;;5047827;28;20492;-59
2023/09/12 13:59:06;;;;;;;11.35;7.72;;;;;;;;;;5050153;28;20028;-70
2023/09/12 14:01:31;;;;;;;11.60;7.88;;;;;;;;;;5048305;28;20442;-60
2023/09/12 14:03:56;;;;;;;9.82;8.82;;;;;;;;;;5049907;28;20021;-60
2023/09/12 14:06:21;;;;;;;9.60;7.50;;;;;;;;;;5048596;28;20025;-60
2023/09/12 14:08:46;;;;;;;10.65;7.28;;;;;;;;;;5050013;28;20049;-60
2023/09/12 14:11:11;;;;;;;11.48;8.55;;;;;;;;;;5048383;28;20094;-60